createdAt,value
2023-05-17T00:02:06.308Z,9.63
2023-05-17T00:04:33.651Z,9.30
2023-05-17T00:07:00.439Z,7.20
2023-05-17T00:09:27.046Z,8.20
2023-05-17T00:11:53.580Z,6.70
2023-05-17T00:14:20.341Z,6.78
2023-05-17T00:16:46.917Z,7.43
2023-05-17T00:19:13.806Z,6.35
2023-05-17T00:21:40.625Z,6.57
2023-05-17T00:24:07.296Z,6.45
2023-05-17T00:26:33.919Z,6.18
2023-05-17T00:29:00.660Z,6.57
2023-05-17T00:31:27.357Z,7.32
2023-05-17T00:33:53.980Z,7.22
2023-05-17T00:36:20.931Z,7.43
2023-05-17T00:38:47.528Z,6.05
2023-05-17T00:41:14.110Z,7.20
2023-05-17T00:43:40.959Z,9.15
2023-05-17T00:46:07.931Z,11.77
2023-05-17T00:48:35.890Z,9.32
2023-05-17T00:51:02.851Z,10.23
2023-05-17T00:53:30.175Z,8.50
2023-05-17T00:55:56.907Z,7.85
2023-05-17T00:58:24.154Z,8.25
2023-05-17T01:00:52.122Z,8.00
2023-05-17T01:03:18.941Z,6.70
2023-05-17T01:05:45.664Z,6.57
2023-05-17T01:08:12.223Z,7.32
2023-05-17T01:11:13.485Z,7.07
2023-05-17T01:13:56.640Z,6.10
2023-05-17T01:16:31.122Z,5.35
2023-05-17T01:19:19.728Z,5.47
2023-05-17T01:21:55.565Z,4.60
2023-05-17T01:24:57.784Z,5.10
2023-05-17T01:27:26.667Z,4.18
2023-05-17T01:29:56.308Z,6.88
2023-05-17T01:32:25.059Z,7.10
2023-05-17T01:34:52.141Z,6.82
2023-05-17T01:37:18.868Z,6.05
2023-05-17T01:39:46.535Z,6.25
2023-05-17T01:42:21.969Z,4.97
2023-05-17T01:45:18.588Z,6.70
2023-05-17T01:47:47.711Z,6.25
2023-05-17T01:50:17.518Z,5.18
2023-05-17T01:52:55.240Z,5.30
2023-05-17T01:55:24.524Z,6.55
2023-05-17T01:57:55.818Z,5.30
2023-05-17T02:00:25.800Z,5.90
2023-05-17T02:02:52.493Z,6.25
2023-05-17T02:05:22.368Z,7.80
2023-05-17T02:07:48.941Z,7.25
2023-05-17T02:10:17.441Z,7.30
2023-05-17T02:12:44.127Z,7.82
2023-05-17T02:15:12.080Z,5.90
2023-05-17T02:17:40.641Z,7.63
2023-05-17T02:20:08.789Z,6.90
2023-05-17T02:22:35.845Z,7.47
2023-05-17T02:25:02.581Z,8.05
2023-05-17T02:27:29.378Z,7.78
2023-05-17T02:29:56.076Z,9.40
2023-05-17T02:32:23.000Z,10.07
2023-05-17T02:34:49.740Z,12.38
2023-05-17T02:37:16.375Z,12.13
2023-05-17T02:39:44.318Z,11.10
2023-05-17T02:42:11.284Z,11.82
2023-05-17T02:44:37.937Z,11.63
2023-05-17T02:47:04.846Z,12.85
2023-05-17T02:49:31.610Z,14.32
2023-05-17T02:51:58.324Z,12.90
2023-05-17T02:54:25.005Z,11.25
2023-05-17T02:56:51.797Z,13.13
2023-05-17T02:59:18.518Z,11.35
2023-05-17T03:01:45.189Z,13.07
2023-05-17T03:04:12.511Z,12.38
2023-05-17T03:06:40.211Z,11.25
2023-05-17T03:09:07.264Z,13.38
2023-05-17T03:11:34.582Z,11.05
2023-05-17T03:14:04.138Z,11.60
2023-05-17T03:16:31.700Z,12.88
2023-05-17T03:18:59.377Z,12.70
2023-05-17T03:21:26.075Z,10.82
2023-05-17T03:23:52.687Z,11.80
2023-05-17T03:26:19.837Z,11.23
2023-05-17T03:28:49.878Z,11.50
2023-05-17T03:31:18.876Z,12.65
2023-05-17T03:33:46.038Z,12.10
2023-05-17T03:36:13.942Z,13.50
2023-05-17T03:38:40.653Z,12.68
2023-05-17T03:41:08.521Z,14.15
2023-05-17T03:43:35.247Z,13.20
2023-05-17T03:46:01.949Z,13.55
2023-05-17T03:48:29.549Z,12.15
2023-05-17T03:50:56.219Z,13.35
2023-05-17T03:53:22.906Z,11.45
2023-05-17T03:55:49.598Z,10.52
2023-05-17T03:58:18.175Z,11.32
2023-05-17T04:00:44.790Z,10.75
2023-05-17T04:03:16.915Z,11.93
2023-05-17T04:05:46.547Z,10.57
2023-05-17T04:08:13.712Z,12.98
2023-05-17T04:10:42.139Z,11.82
2023-05-17T04:13:09.622Z,15.40
2023-05-17T04:15:37.598Z,15.27
2023-05-17T04:18:05.538Z,14.82
2023-05-17T04:20:32.326Z,13.90
2023-05-17T04:23:01.778Z,14.27
2023-05-17T04:25:31.007Z,15.73
2023-05-17T04:27:57.900Z,13.77
2023-05-17T04:30:25.834Z,11.90
2023-05-17T04:32:52.532Z,11.32
2023-05-17T04:35:19.281Z,12.23
2023-05-17T04:37:49.574Z,12.60
2023-05-17T04:40:21.328Z,11.02
2023-05-17T04:42:48.943Z,12.68
2023-05-17T04:45:17.634Z,13.77
2023-05-17T04:47:44.320Z,16.38
2023-05-17T04:50:11.584Z,16.50
2023-05-17T04:52:38.433Z,13.73
2023-05-17T04:55:05.665Z,12.15
2023-05-17T04:57:32.357Z,13.27
2023-05-17T05:00:06.215Z,14.82
2023-05-17T05:02:33.736Z,14.73
2023-05-17T05:05:00.971Z,12.70
2023-05-17T05:07:28.034Z,12.55
2023-05-17T05:09:54.925Z,11.02
2023-05-17T05:12:23.112Z,10.32
2023-05-17T05:14:49.844Z,9.25
2023-05-17T05:17:16.499Z,10.20
2023-05-17T05:19:43.243Z,9.13
2023-05-17T05:22:09.866Z,9.13
2023-05-17T05:24:38.160Z,9.68
2023-05-17T05:27:06.939Z,9.40
2023-05-17T05:29:33.869Z,9.23
2023-05-17T05:32:00.527Z,8.85
2023-05-17T05:34:28.531Z,9.43
2023-05-17T05:36:55.533Z,9.05
2023-05-17T05:39:22.563Z,11.35
2023-05-17T05:41:49.892Z,10.43
2023-05-17T05:44:16.601Z,11.45
2023-05-17T05:46:43.415Z,9.88
2023-05-17T05:49:10.392Z,11.30
2023-05-17T05:51:37.516Z,9.57
2023-05-17T05:54:04.182Z,7.85
2023-05-17T05:56:31.611Z,7.78
2023-05-17T05:58:58.244Z,5.80
2023-05-17T06:01:25.410Z,5.22
2023-05-17T06:03:52.038Z,5.40
2023-05-17T06:06:19.449Z,5.32
2023-05-17T06:08:47.282Z,5.90
2023-05-17T06:11:14.308Z,4.70
2023-05-17T06:13:40.918Z,5.22
2023-05-17T06:16:07.532Z,5.20
2023-05-17T06:18:34.168Z,4.97
2023-05-17T06:21:00.893Z,4.55
2023-05-17T06:23:27.500Z,5.03
2023-05-17T06:25:54.117Z,4.63
2023-05-17T06:28:20.747Z,4.35
2023-05-17T06:30:47.349Z,4.00
2023-05-17T06:33:14.070Z,4.50
2023-05-17T06:35:54.632Z,4.70
2023-05-17T06:38:22.128Z,4.43
2023-05-17T06:40:55.636Z,3.55
2023-05-17T06:43:22.299Z,4.22
2023-05-17T06:45:48.907Z,4.10
2023-05-17T06:48:16.214Z,3.95
2023-05-17T06:50:43.104Z,3.60
2023-05-17T06:53:09.701Z,3.78
2023-05-17T06:55:36.618Z,4.22
2023-05-17T06:58:03.270Z,4.28
2023-05-17T07:00:30.355Z,4.32
2023-05-17T07:02:57.265Z,3.45
2023-05-17T07:05:24.302Z,3.33
2023-05-17T07:07:50.964Z,4.03
2023-05-17T07:10:17.546Z,3.30
2023-05-17T07:12:44.174Z,3.90
2023-05-17T07:15:11.325Z,3.95
2023-05-17T07:17:38.097Z,4.53
2023-05-17T07:20:06.219Z,4.18
2023-05-17T07:22:33.068Z,3.97
2023-05-17T07:24:59.710Z,3.75
2023-05-17T07:27:26.336Z,2.88
2023-05-17T07:29:53.006Z,3.83
2023-05-17T07:32:19.577Z,3.65
2023-05-17T07:34:46.436Z,3.25
2023-05-17T07:37:13.143Z,4.13
2023-05-17T07:39:39.949Z,3.35
2023-05-17T07:42:07.049Z,3.78
2023-05-17T07:44:33.885Z,3.45
2023-05-17T07:47:00.633Z,3.55
2023-05-17T07:49:27.593Z,2.78
2023-05-17T07:51:55.506Z,3.78
2023-05-17T07:54:24.892Z,3.95
2023-05-17T07:56:53.186Z,2.92
2023-05-17T07:59:19.843Z,4.07
2023-05-17T08:01:46.626Z,3.40
2023-05-17T08:04:14.354Z,3.78
2023-05-17T08:06:41.881Z,3.30
2023-05-17T08:09:08.479Z,3.22
2023-05-17T08:11:35.405Z,3.00
2023-05-17T08:14:01.999Z,2.88
2023-05-17T08:16:28.611Z,2.90
2023-05-17T08:18:55.495Z,3.03
2023-05-17T08:21:22.945Z,3.28
2023-05-17T08:23:49.556Z,2.85
2023-05-17T08:26:16.199Z,3.45
2023-05-17T08:28:42.731Z,3.35
2023-05-17T08:31:09.290Z,3.10
2023-05-17T08:33:36.580Z,2.72
2023-05-17T08:36:07.858Z,2.53
2023-05-17T08:38:34.692Z,2.17
2023-05-17T08:41:02.499Z,2.40
2023-05-17T08:43:31.325Z,3.08
2023-05-17T08:45:59.155Z,2.42
2023-05-17T08:48:27.548Z,2.13
2023-05-17T08:50:56.327Z,2.80
2023-05-17T08:53:24.355Z,2.47
2023-05-17T08:55:52.278Z,2.33
2023-05-17T08:58:26.855Z,2.25
2023-05-17T09:00:54.812Z,1.90
2023-05-17T09:03:22.579Z,2.53
2023-05-17T09:05:53.521Z,1.75
2023-05-17T09:08:22.446Z,1.70
2023-05-17T09:10:50.139Z,2.17
2023-05-17T09:13:17.120Z,2.38
2023-05-17T09:15:47.823Z,2.63
2023-05-17T09:18:17.019Z,1.98
2023-05-17T09:20:51.534Z,2.13
2023-05-17T09:23:21.376Z,2.00
2023-05-17T09:25:49.075Z,1.95
2023-05-17T09:28:18.817Z,1.92
2023-05-17T09:30:48.375Z,1.88
2023-05-17T09:33:17.660Z,1.98
2023-05-17T09:35:45.561Z,2.10
2023-05-17T09:38:13.684Z,1.77
2023-05-17T09:40:45.094Z,1.90
2023-05-17T09:43:13.017Z,1.50
2023-05-17T09:45:40.200Z,2.10
2023-05-17T09:48:13.761Z,1.95
2023-05-17T09:50:49.545Z,2.00
2023-05-17T09:53:28.255Z,1.73
2023-05-17T09:55:59.799Z,1.60
2023-05-17T09:58:28.672Z,1.57
2023-05-17T10:01:03.625Z,1.65
2023-05-17T10:03:33.173Z,2.17
2023-05-17T10:06:03.769Z,1.60
2023-05-17T10:08:31.777Z,1.77
2023-05-17T10:11:03.433Z,1.70
2023-05-17T10:13:54.457Z,1.65
2023-05-17T10:16:23.460Z,1.50
2023-05-17T10:18:50.911Z,1.70
2023-05-17T10:21:18.613Z,1.98
2023-05-17T10:23:47.425Z,2.15
2023-05-17T10:26:16.132Z,2.10
2023-05-17T10:28:43.357Z,2.03
2023-05-17T10:31:10.223Z,1.73
2023-05-17T10:33:37.394Z,1.88
2023-05-17T10:36:06.562Z,1.70
2023-05-17T10:38:41.777Z,2.10
2023-05-17T10:41:15.033Z,1.90
2023-05-17T10:43:43.604Z,2.03
2023-05-17T10:46:16.399Z,1.60
2023-05-17T10:48:44.447Z,1.80
2023-05-17T10:51:12.024Z,1.60
2023-05-17T10:54:11.846Z,1.85
2023-05-17T10:56:47.276Z,1.65
2023-05-17T10:59:26.672Z,1.50
2023-05-17T11:02:04.498Z,1.88
2023-05-17T11:04:42.284Z,1.90
2023-05-17T11:07:27.914Z,1.67
2023-05-17T11:10:07.916Z,1.65
2023-05-17T11:12:37.607Z,1.70
2023-05-17T11:15:10.457Z,1.83
2023-05-17T11:17:51.346Z,1.17
2023-05-17T11:20:24.069Z,1.70
2023-05-17T11:23:05.020Z,1.52
2023-05-17T11:25:39.530Z,1.50
2023-05-17T11:28:08.792Z,1.52
2023-05-17T11:30:41.357Z,1.48
2023-05-17T11:33:20.393Z,1.90
2023-05-17T11:35:54.612Z,1.60
2023-05-17T11:38:30.303Z,1.92
2023-05-17T11:40:57.793Z,1.60
2023-05-17T11:43:27.240Z,1.42
2023-05-17T11:45:57.364Z,1.50
2023-05-17T11:48:26.104Z,1.60
2023-05-17T11:50:55.015Z,1.30
2023-05-17T11:53:22.009Z,1.52
2023-05-17T11:55:52.981Z,1.40
2023-05-17T11:58:24.150Z,1.92
2023-05-17T12:00:55.862Z,1.42
2023-05-17T12:03:22.457Z,1.15
2023-05-17T12:06:10.468Z,1.63
2023-05-17T12:08:39.228Z,1.58
2023-05-17T12:11:07.285Z,1.52
2023-05-17T12:13:35.612Z,1.52
2023-05-17T12:16:05.869Z,1.55
2023-05-17T12:18:37.893Z,2.00
2023-05-17T12:21:05.753Z,1.73
2023-05-17T12:23:33.635Z,1.45
2023-05-17T12:26:16.607Z,1.83
2023-05-17T12:28:46.260Z,1.75
2023-05-17T12:31:16.771Z,1.40
2023-05-17T12:33:45.342Z,1.38
2023-05-17T12:36:13.826Z,1.52
2023-05-17T12:38:42.342Z,1.40
2023-05-17T12:41:12.430Z,1.90
2023-05-17T12:43:40.149Z,2.10
2023-05-17T12:46:08.834Z,1.58
2023-05-17T12:48:40.543Z,1.63
2023-05-17T12:51:14.626Z,1.30
2023-05-17T12:53:44.941Z,1.50
2023-05-17T12:56:16.911Z,2.03
2023-05-17T12:58:44.525Z,1.48
2023-05-17T13:01:14.370Z,1.90
2023-05-17T13:03:41.796Z,1.88
2023-05-17T13:06:10.253Z,2.03
2023-05-17T13:08:37.042Z,1.73
2023-05-17T13:11:13.539Z,1.83
2023-05-17T13:13:41.506Z,1.88
2023-05-17T13:16:08.444Z,2.13
2023-05-17T13:18:52.015Z,1.98
2023-05-17T13:21:20.424Z,2.45
2023-05-17T13:23:48.852Z,1.65
2023-05-17T13:26:17.330Z,2.25
2023-05-17T13:28:44.614Z,1.83
2023-05-17T13:31:11.435Z,1.55
2023-05-17T13:33:38.418Z,2.15
2023-05-17T13:36:05.520Z,2.22
2023-05-17T13:38:32.089Z,2.47
2023-05-17T13:40:58.705Z,2.08
2023-05-17T13:43:25.294Z,1.60
2023-05-17T13:45:56.688Z,2.08
2023-05-17T13:48:23.464Z,1.65
2023-05-17T13:50:50.971Z,1.85
2023-05-17T13:53:18.085Z,2.20
2023-05-17T13:55:44.933Z,2.75
2023-05-17T13:58:11.729Z,2.45
2023-05-17T14:00:41.275Z,2.30
2023-05-17T14:03:08.498Z,2.60
2023-05-17T14:05:36.545Z,2.35
2023-05-17T14:08:03.531Z,2.38
2023-05-17T14:10:30.610Z,2.50
2023-05-17T14:12:57.393Z,2.50
2023-05-17T14:15:24.599Z,2.63
2023-05-17T14:17:51.589Z,2.28
2023-05-17T14:20:18.511Z,2.38
2023-05-17T14:22:45.848Z,2.80
2023-05-17T14:25:12.486Z,2.75
2023-05-17T14:27:39.084Z,2.65
2023-05-17T14:30:06.327Z,2.45
2023-05-17T14:32:33.002Z,2.42
2023-05-17T14:34:59.598Z,2.60
2023-05-17T14:37:26.223Z,2.63
2023-05-17T14:40:05.776Z,2.53
2023-05-17T14:42:33.706Z,2.65
2023-05-17T14:45:00.533Z,2.20
2023-05-17T14:47:27.246Z,2.80
2023-05-17T14:49:53.813Z,3.13
2023-05-17T14:52:20.692Z,2.70
2023-05-17T14:54:47.341Z,2.70
2023-05-17T14:57:13.984Z,2.35
2023-05-17T14:59:43.206Z,2.17
2023-05-17T15:02:11.639Z,2.05
2023-05-17T15:04:38.550Z,2.03
2023-05-17T15:07:05.986Z,2.63
2023-05-17T15:09:32.664Z,2.35
2023-05-17T15:11:59.271Z,2.10
2023-05-17T15:14:27.041Z,2.80
2023-05-17T15:16:53.672Z,2.78
2023-05-17T15:19:20.476Z,3.55
2023-05-17T15:21:47.215Z,2.78
2023-05-17T15:24:15.953Z,3.40
2023-05-17T15:26:44.428Z,2.40
2023-05-17T15:29:11.615Z,2.60
2023-05-17T15:31:38.230Z,2.38
2023-05-17T15:34:04.957Z,2.17
2023-05-17T15:36:32.541Z,2.85
2023-05-17T15:38:59.175Z,3.17
2023-05-17T15:41:29.753Z,2.45
2023-05-17T15:43:57.159Z,2.70
2023-05-17T15:46:23.853Z,2.88
2023-05-17T15:48:50.392Z,2.90
2023-05-17T15:51:17.111Z,3.03
2023-05-17T15:53:43.763Z,2.60
2023-05-17T15:56:11.305Z,2.65
2023-05-17T15:58:37.864Z,3.08
2023-05-17T16:01:05.618Z,2.85
2023-05-17T16:03:33.086Z,2.50
2023-05-17T16:05:59.810Z,2.10
2023-05-17T16:08:26.505Z,2.63
2023-05-17T16:10:53.113Z,2.20
2023-05-17T16:13:19.709Z,3.35
2023-05-17T16:15:46.466Z,3.38
2023-05-17T16:18:15.010Z,2.60
2023-05-17T16:20:42.594Z,2.85
2023-05-17T16:23:09.573Z,2.90
2023-05-17T16:25:36.573Z,3.28
2023-05-17T16:28:03.230Z,2.50
2023-05-17T16:30:29.893Z,2.60
2023-05-17T16:32:56.546Z,2.75
2023-05-17T16:35:23.177Z,2.83
2023-05-17T16:37:50.245Z,2.78
2023-05-17T16:40:16.975Z,2.45
2023-05-17T16:42:44.518Z,3.13
2023-05-17T16:45:11.448Z,2.38
2023-05-17T16:47:38.175Z,3.00
2023-05-17T16:50:06.622Z,2.83
2023-05-17T16:52:33.236Z,2.20
2023-05-17T16:55:03.358Z,2.50
2023-05-17T16:57:34.026Z,2.80
2023-05-17T17:00:01.091Z,2.20
2023-05-17T17:02:28.535Z,2.97
2023-05-17T17:04:55.606Z,2.80
2023-05-17T17:07:22.220Z,2.55
2023-05-17T17:09:48.778Z,2.33
2023-05-17T17:12:24.046Z,2.17
2023-05-17T17:14:52.429Z,2.47
2023-05-17T17:17:18.985Z,3.47
2023-05-17T17:19:45.539Z,2.65
2023-05-17T17:22:14.184Z,2.60
2023-05-17T17:24:40.832Z,2.40
2023-05-17T17:27:07.455Z,3.67
2023-05-17T17:29:34.055Z,2.90
2023-05-17T17:32:00.994Z,2.33
2023-05-17T17:34:27.719Z,2.63
2023-05-17T17:36:54.602Z,2.28
2023-05-17T17:39:21.264Z,2.50
2023-05-17T17:41:47.964Z,2.35
2023-05-17T17:44:14.497Z,2.35
2023-05-17T17:46:41.134Z,2.22
2023-05-17T17:49:07.800Z,2.53
2023-05-17T17:51:34.419Z,2.33
2023-05-17T17:54:03.626Z,2.38
2023-05-17T17:56:30.424Z,2.40
2023-05-17T17:58:57.169Z,2.25
2023-05-17T18:01:23.961Z,2.47
2023-05-17T18:03:50.615Z,2.15
2023-05-17T18:06:17.197Z,2.53
2023-05-17T18:08:43.840Z,2.28
2023-05-17T18:11:10.435Z,2.17
2023-05-17T18:13:37.150Z,1.88
2023-05-17T18:16:04.166Z,2.47
2023-05-17T18:18:30.755Z,2.30
2023-05-17T18:20:57.556Z,2.08
2023-05-17T18:23:24.755Z,1.92
2023-05-17T18:25:51.475Z,1.95
2023-05-17T18:28:21.682Z,2.40
2023-05-17T18:30:58.118Z,1.80
2023-05-17T18:33:25.306Z,2.70
2023-05-17T18:35:51.943Z,2.17
2023-05-17T18:38:18.888Z,2.22
2023-05-17T18:40:45.672Z,2.50
2023-05-17T18:43:12.911Z,3.15
2023-05-17T18:45:39.579Z,2.83
2023-05-17T18:48:06.410Z,2.33
2023-05-17T18:50:33.239Z,1.90
2023-05-17T18:53:00.573Z,2.38
2023-05-17T18:55:27.237Z,2.50
2023-05-17T18:57:54.031Z,2.60
2023-05-17T19:00:21.188Z,2.22
2023-05-17T19:02:48.172Z,2.38
2023-05-17T19:05:14.970Z,2.65
2023-05-17T19:07:41.504Z,2.22
2023-05-17T19:10:08.563Z,2.00
2023-05-17T19:12:35.582Z,2.10
2023-05-17T19:15:03.863Z,2.30
2023-05-17T19:17:30.816Z,2.97
2023-05-17T19:19:57.551Z,1.90
2023-05-17T19:22:24.143Z,2.70
2023-05-17T19:24:50.797Z,2.35
2023-05-17T19:27:19.696Z,2.20
2023-05-17T19:29:47.764Z,2.10
2023-05-17T19:32:14.452Z,2.40
2023-05-17T19:34:41.352Z,2.35
2023-05-17T19:37:07.964Z,2.65
2023-05-17T19:39:34.538Z,4.10
2023-05-17T19:42:01.185Z,2.10
2023-05-17T19:44:27.746Z,2.45
2023-05-17T19:46:54.465Z,2.42
2023-05-17T19:49:21.469Z,3.22
2023-05-17T19:51:48.184Z,2.67
2023-05-17T19:54:14.905Z,3.08
2023-05-17T19:56:41.591Z,2.35
2023-05-17T19:59:08.274Z,2.38
2023-05-17T20:01:34.959Z,2.00
2023-05-17T20:04:01.717Z,2.70
2023-05-17T20:06:28.492Z,2.58
2023-05-17T20:08:55.103Z,2.35
2023-05-17T20:11:21.903Z,2.28
2023-05-17T20:13:48.484Z,2.22
2023-05-17T20:16:15.140Z,2.13
2023-05-17T20:18:43.444Z,2.45
2023-05-17T20:21:12.519Z,1.70
2023-05-17T20:23:40.446Z,2.50
2023-05-17T20:26:07.112Z,2.20
2023-05-17T20:28:33.772Z,1.75
2023-05-17T20:31:00.800Z,2.35
2023-05-17T20:33:27.572Z,2.80
2023-05-17T20:35:54.212Z,2.40
2023-05-17T20:38:21.543Z,2.72
2023-05-17T20:40:48.261Z,2.42
2023-05-17T20:43:16.705Z,2.63
2023-05-17T20:45:43.569Z,2.03
2023-05-17T20:48:10.318Z,2.55
2023-05-17T20:50:37.118Z,2.55
2023-05-17T20:53:03.808Z,1.48
2023-05-17T20:55:30.480Z,2.70
2023-05-17T20:57:57.626Z,2.42
2023-05-17T21:00:24.690Z,2.08
2023-05-17T21:02:51.502Z,2.58
2023-05-17T21:05:18.181Z,1.65
2023-05-17T21:07:46.655Z,2.33
2023-05-17T21:10:13.381Z,2.45
2023-05-17T21:12:40.099Z,3.03
2023-05-17T21:15:15.804Z,3.00
2023-05-17T21:17:45.338Z,3.10
2023-05-17T21:20:12.291Z,3.22
2023-05-17T21:22:38.941Z,2.90
2023-05-17T21:25:06.125Z,3.33
2023-05-17T21:27:33.946Z,3.03
2023-05-17T21:30:01.503Z,3.28
2023-05-17T21:32:28.155Z,3.28
2023-05-17T21:34:54.714Z,2.55
2023-05-17T21:37:21.411Z,3.22
2023-05-17T21:39:47.996Z,3.33
2023-05-17T21:42:14.566Z,3.08
2023-05-17T21:44:41.181Z,2.83
2023-05-17T21:47:07.925Z,2.47
2023-05-17T21:49:34.720Z,2.78
2023-05-17T21:52:01.314Z,2.53
2023-05-17T21:54:27.837Z,2.40
2023-05-17T21:56:54.411Z,2.65
2023-05-17T21:59:21.005Z,2.05
2023-05-17T22:01:47.676Z,2.30
2023-05-17T22:04:14.315Z,2.25
2023-05-17T22:06:40.936Z,2.30
2023-05-17T22:09:09.385Z,2.58
2023-05-17T22:11:38.369Z,2.40
2023-05-17T22:14:07.966Z,2.38
2023-05-17T22:16:36.064Z,2.00
2023-05-17T22:19:03.882Z,1.73
2023-05-17T22:21:32.120Z,2.72
2023-05-17T22:23:59.400Z,2.00
2023-05-17T22:26:27.662Z,1.63
2023-05-17T22:28:54.612Z,1.73
2023-05-17T22:31:21.433Z,1.88
2023-05-17T22:33:48.110Z,2.00
2023-05-17T22:36:14.787Z,2.75
2023-05-17T22:38:42.657Z,2.17
2023-05-17T22:41:10.723Z,2.88
2023-05-17T22:43:37.921Z,2.42
2023-05-17T22:46:05.019Z,2.70
2023-05-17T22:48:32.362Z,1.92
2023-05-17T22:51:00.810Z,2.13
2023-05-17T22:53:29.058Z,1.83
2023-05-17T22:55:56.102Z,1.92
2023-05-17T22:58:25.839Z,2.30
2023-05-17T23:00:52.728Z,2.15
2023-05-17T23:03:19.604Z,2.45
2023-05-17T23:05:46.303Z,2.55
2023-05-17T23:08:15.426Z,2.38
2023-05-17T23:10:45.767Z,2.33
2023-05-17T23:13:12.845Z,1.70
2023-05-17T23:15:40.632Z,2.17
2023-05-17T23:18:08.493Z,2.70
2023-05-17T23:20:35.173Z,2.00
2023-05-17T23:23:02.070Z,2.13
2023-05-17T23:25:28.934Z,2.67
2023-05-17T23:27:58.049Z,2.80
2023-05-17T23:30:25.107Z,2.50
2023-05-17T23:32:52.560Z,2.45
2023-05-17T23:35:19.145Z,2.30
2023-05-17T23:37:45.808Z,2.05
2023-05-17T23:40:14.616Z,2.50
2023-05-17T23:42:41.771Z,2.20
2023-05-17T23:45:09.809Z,2.20
2023-05-17T23:47:40.813Z,2.10
2023-05-17T23:50:11.975Z,2.85
2023-05-17T23:52:39.631Z,2.65
2023-05-17T23:55:07.435Z,2.75
2023-05-17T23:57:35.186Z,2.30
